createdAt,value
2019-05-30T00:01:27.426Z,10.80
2019-05-30T00:03:54.628Z,10.80
2019-05-30T00:06:22.440Z,10.70
2019-05-30T00:08:49.866Z,10.70
2019-05-30T00:11:17.140Z,10.70
2019-05-30T00:13:44.420Z,10.60
2019-05-30T00:16:11.968Z,10.60
2019-05-30T00:18:39.261Z,10.60
2019-05-30T00:21:06.700Z,10.50
2019-05-30T00:23:34.941Z,10.50
2019-05-30T00:26:03.174Z,10.40
2019-05-30T00:28:30.615Z,10.30
2019-05-30T00:31:00.425Z,10.30
2019-05-30T00:33:29.255Z,10.30
2019-05-30T00:35:57.649Z,10.20
2019-05-30T00:38:24.850Z,10.20
2019-05-30T00:40:51.932Z,10.30
2019-05-30T00:43:19.730Z,10.20
2019-05-30T00:45:48.051Z,10.20
2019-05-30T00:48:15.240Z,10.10
2019-05-30T00:50:42.730Z,10.20
2019-05-30T00:53:10.156Z,10.20
2019-05-30T00:55:37.213Z,10.20
2019-05-30T00:58:04.887Z,10.20
2019-05-30T01:00:42.929Z,10.20
2019-05-30T01:03:04.795Z,10.10
2019-05-30T01:05:31.389Z,10.10
2019-05-30T01:07:58.774Z,10.10
2019-05-30T01:10:26.468Z,10.10
2019-05-30T01:12:54.116Z,10.20
2019-05-30T01:15:21.046Z,10.20
2019-05-30T01:17:48.478Z,10.20
2019-05-30T01:20:16.319Z,10.30
2019-05-30T01:22:43.803Z,10.40
2019-05-30T01:25:11.264Z,10.50
2019-05-30T01:27:38.181Z,10.60
2019-05-30T01:30:07.963Z,10.60
2019-05-30T01:32:35.495Z,10.70
2019-05-30T01:35:05.817Z,10.80
2019-05-30T01:37:33.212Z,10.90
2019-05-30T01:40:00.359Z,11.00
2019-05-30T01:42:27.592Z,11.00
2019-05-30T01:44:55.320Z,11.00
2019-05-30T01:47:23.525Z,11.00
2019-05-30T01:49:50.744Z,11.00
2019-05-30T01:52:18.125Z,11.00
2019-05-30T01:54:45.246Z,11.00
2019-05-30T01:57:12.656Z,11.10
2019-05-30T01:59:39.819Z,11.20
2019-05-30T02:02:07.233Z,11.20
2019-05-30T02:04:34.466Z,11.20
2019-05-30T02:07:01.430Z,11.20
2019-05-30T02:09:28.645Z,11.20
2019-05-30T02:11:55.967Z,11.30
2019-05-30T02:14:24.638Z,11.30
2019-05-30T02:16:52.067Z,11.30
2019-05-30T02:19:19.192Z,11.00
2019-05-30T02:21:46.406Z,10.80
2019-05-30T02:24:13.853Z,10.80
2019-05-30T02:26:40.910Z,10.80
2019-05-30T02:29:08.492Z,10.80
2019-05-30T02:31:44.332Z,10.70
2019-05-30T02:34:12.171Z,10.70
2019-05-30T02:36:39.449Z,10.70
2019-05-30T02:39:07.984Z,10.80
2019-05-30T02:41:36.903Z,10.60
2019-05-30T02:44:05.510Z,10.60
2019-05-30T02:46:33.672Z,10.50
2019-05-30T02:49:04.959Z,10.50
2019-05-30T02:51:32.246Z,10.40
2019-05-30T02:54:01.512Z,10.20
2019-05-30T02:56:29.147Z,10.10
2019-05-30T02:58:56.426Z,9.90
2019-05-30T03:01:23.673Z,9.80
2019-05-30T03:03:50.881Z,9.70
2019-05-30T03:06:18.245Z,9.60
2019-05-30T03:08:45.916Z,9.50
2019-05-30T03:11:15.392Z,9.40
2019-05-30T03:13:42.243Z,9.40
2019-05-30T03:16:11.822Z,9.30
2019-05-30T03:18:39.844Z,9.20
2019-05-30T03:21:09.787Z,9.20
2019-05-30T03:23:36.480Z,9.20
2019-05-30T03:26:04.851Z,9.20
2019-05-30T03:28:32.843Z,9.20
2019-05-30T03:31:04.430Z,9.30
2019-05-30T03:33:38.774Z,9.20
2019-05-30T03:35:59.362Z,9.20
2019-05-30T03:38:26.769Z,9.10
2019-05-30T03:40:55.141Z,9.10
2019-05-30T03:43:22.462Z,9.10
2019-05-30T03:45:50.571Z,9.00
2019-05-30T03:48:20.829Z,8.80
2019-05-30T03:50:52.164Z,8.80
2019-05-30T03:53:19.880Z,8.90
2019-05-30T03:55:53.034Z,8.90
2019-05-30T03:58:28.368Z,8.80
2019-05-30T04:00:59.814Z,8.90
2019-05-30T04:03:42.314Z,8.90
2019-05-30T04:06:25.301Z,9.00
2019-05-30T04:08:57.493Z,9.10
2019-05-30T04:11:33.171Z,9.10
2019-05-30T04:14:03.349Z,9.10
2019-05-30T04:16:33.157Z,9.30
2019-05-30T04:19:00.106Z,9.50
2019-05-30T04:21:27.714Z,9.80
2019-05-30T04:23:55.128Z,10.10
2019-05-30T04:26:22.967Z,10.40
2019-05-30T04:28:50.421Z,10.90
2019-05-30T04:31:19.170Z,11.30
2019-05-30T04:33:46.737Z,11.50
2019-05-30T04:36:14.576Z,11.80
2019-05-30T04:38:42.073Z,12.10
2019-05-30T04:41:11.142Z,12.30
2019-05-30T04:43:38.459Z,12.70
2019-05-30T04:46:05.864Z,13.30
2019-05-30T04:48:34.753Z,14.00
2019-05-30T04:51:02.398Z,14.60
2019-05-30T04:53:29.727Z,15.30
2019-05-30T04:55:57.203Z,15.80
2019-05-30T04:58:24.986Z,16.40
2019-05-30T05:00:52.095Z,16.90
2019-05-30T05:03:41.816Z,17.40
2019-05-30T05:05:49.586Z,17.90
2019-05-30T05:08:17.971Z,18.40
2019-05-30T05:10:46.469Z,18.90
2019-05-30T05:13:14.125Z,19.30
2019-05-30T05:15:42.319Z,19.40
2019-05-30T05:18:09.530Z,19.30
2019-05-30T05:20:37.338Z,19.10
2019-05-30T05:23:04.377Z,19.10
2019-05-30T05:25:31.587Z,18.70
2019-05-30T05:27:58.969Z,18.40
2019-05-30T05:30:26.462Z,18.80
2019-05-30T05:32:54.290Z,18.90
2019-05-30T05:35:22.896Z,19.00
2019-05-30T05:37:50.413Z,18.70
2019-05-30T05:40:18.094Z,18.70
2019-05-30T05:42:45.468Z,18.80
2019-05-30T05:45:12.816Z,18.80
2019-05-30T05:47:40.020Z,18.70
2019-05-30T05:50:07.662Z,19.00
2019-05-30T05:52:34.976Z,19.10
2019-05-30T05:55:02.766Z,19.30
2019-05-30T05:57:30.014Z,19.80
2019-05-30T05:59:57.278Z,20.30
2019-05-30T06:02:25.204Z,20.60
2019-05-30T06:04:52.307Z,20.80
2019-05-30T06:07:20.235Z,21.20
2019-05-30T06:09:49.423Z,21.20
2019-05-30T06:12:19.441Z,21.50
2019-05-30T06:14:47.097Z,21.20
2019-05-30T06:17:16.859Z,21.50
2019-05-30T06:19:46.820Z,21.60
2019-05-30T06:22:14.067Z,21.20
2019-05-30T06:24:41.737Z,20.70
2019-05-30T06:27:09.079Z,20.70
2019-05-30T06:29:35.929Z,20.60
2019-05-30T06:32:03.137Z,20.60
2019-05-30T06:34:38.780Z,20.30
2019-05-30T06:36:59.519Z,19.80
2019-05-30T06:39:27.568Z,19.50
2019-05-30T06:41:55.584Z,19.60
2019-05-30T06:44:22.626Z,19.80
2019-05-30T06:46:49.627Z,19.80
2019-05-30T06:49:17.013Z,20.10
2019-05-30T06:51:44.220Z,20.00
2019-05-30T06:54:11.319Z,20.10
2019-05-30T06:56:38.599Z,20.40
2019-05-30T06:59:05.961Z,20.60
2019-05-30T07:01:34.420Z,21.10
2019-05-30T07:04:01.776Z,21.60
2019-05-30T07:06:30.104Z,21.40
2019-05-30T07:08:58.459Z,21.20
2019-05-30T07:11:26.719Z,21.00
2019-05-30T07:13:54.030Z,21.10
2019-05-30T07:16:21.555Z,21.90
2019-05-30T07:18:51.678Z,22.60
2019-05-30T07:21:18.859Z,22.70
2019-05-30T07:23:46.272Z,22.60
2019-05-30T07:26:13.514Z,23.00
2019-05-30T07:28:40.752Z,23.50
2019-05-30T07:31:08.152Z,24.00
2019-05-30T07:33:35.602Z,24.10
2019-05-30T07:36:02.904Z,24.70
2019-05-30T07:38:32.530Z,25.20
2019-05-30T07:41:02.867Z,25.80
2019-05-30T07:43:31.568Z,25.90
2019-05-30T07:45:59.067Z,26.00
2019-05-30T07:48:26.598Z,25.80
2019-05-30T07:50:54.259Z,25.80
2019-05-30T07:53:21.640Z,26.00
2019-05-30T07:55:49.370Z,26.20
2019-05-30T07:58:17.192Z,26.20
2019-05-30T08:00:44.419Z,26.10
2019-05-30T08:03:11.668Z,26.30
2019-05-30T08:05:39.233Z,26.20
2019-05-30T08:08:06.406Z,26.50
2019-05-30T08:10:34.066Z,27.20
2019-05-30T08:13:01.489Z,27.70
2019-05-30T08:15:29.253Z,28.10
2019-05-30T08:17:57.084Z,28.20
2019-05-30T08:20:24.229Z,28.00
2019-05-30T08:22:51.477Z,28.40
2019-05-30T08:25:18.701Z,28.80
2019-05-30T08:27:46.062Z,29.70
2019-05-30T08:30:14.060Z,29.80
2019-05-30T08:32:42.495Z,29.50
2019-05-30T08:35:10.958Z,29.40
2019-05-30T08:37:39.363Z,29.70
2019-05-30T08:40:07.393Z,30.00
2019-05-30T08:42:35.399Z,30.40
2019-05-30T08:45:03.107Z,30.40
2019-05-30T08:47:30.389Z,30.20
2019-05-30T08:49:58.625Z,30.40
2019-05-30T08:52:25.945Z,30.20
2019-05-30T08:54:52.984Z,30.20
2019-05-30T08:57:20.326Z,30.90
2019-05-30T08:59:48.023Z,31.20
2019-05-30T09:02:15.578Z,31.10
2019-05-30T09:04:44.020Z,30.10
2019-05-30T09:07:11.297Z,29.30
2019-05-30T09:09:40.067Z,28.90
2019-05-30T09:12:07.540Z,27.90
2019-05-30T09:14:37.361Z,27.20
2019-05-30T09:17:04.096Z,27.10
2019-05-30T09:19:31.340Z,26.90
2019-05-30T09:21:58.980Z,27.10
2019-05-30T09:24:26.031Z,27.30
2019-05-30T09:26:53.793Z,27.40
2019-05-30T09:29:21.219Z,26.90
2019-05-30T09:31:48.686Z,26.90
2019-05-30T09:34:15.846Z,28.20
2019-05-30T09:36:42.827Z,28.70
2019-05-30T09:39:10.421Z,28.60
2019-05-30T09:41:37.816Z,28.60
2019-05-30T09:44:06.717Z,29.30
2019-05-30T09:46:33.999Z,29.50
2019-05-30T09:49:01.263Z,29.30
2019-05-30T09:51:29.939Z,29.20
2019-05-30T09:53:57.091Z,29.20
2019-05-30T09:56:24.306Z,29.20
2019-05-30T09:58:52.420Z,29.60
2019-05-30T10:01:19.889Z,29.90
2019-05-30T10:03:48.385Z,30.10
2019-05-30T10:06:28.576Z,30.50
2019-05-30T10:08:47.878Z,31.60
2019-05-30T10:11:16.300Z,32.50
2019-05-30T10:13:46.378Z,32.70
2019-05-30T10:16:13.400Z,32.60
2019-05-30T10:18:40.786Z,32.30
2019-05-30T10:21:08.120Z,31.80
2019-05-30T10:23:35.679Z,31.00
2019-05-30T10:26:03.145Z,30.30
2019-05-30T10:28:30.288Z,29.90
2019-05-30T10:30:59.324Z,30.10
2019-05-30T10:33:26.711Z,30.30
2019-05-30T10:35:53.863Z,30.30
2019-05-30T10:38:21.203Z,30.10
2019-05-30T10:40:49.301Z,29.50
2019-05-30T10:43:18.308Z,29.10
2019-05-30T10:45:47.507Z,28.70
2019-05-30T10:48:14.437Z,28.40
2019-05-30T10:50:41.889Z,28.50
2019-05-30T10:53:09.895Z,28.50
2019-05-30T10:55:37.066Z,28.40
2019-05-30T10:58:04.813Z,28.60
2019-05-30T11:00:45.745Z,29.00
2019-05-30T11:03:14.933Z,29.00
2019-05-30T11:05:47.230Z,28.60
2019-05-30T11:08:19.517Z,28.10
2019-05-30T11:10:46.585Z,28.20
2019-05-30T11:13:14.928Z,28.80
2019-05-30T11:15:42.623Z,29.30
2019-05-30T11:18:12.110Z,29.40
2019-05-30T11:20:39.767Z,29.80
2019-05-30T11:23:07.402Z,29.90
2019-05-30T11:25:35.508Z,30.30
2019-05-30T11:28:03.164Z,30.40
2019-05-30T11:30:30.593Z,29.70
2019-05-30T11:32:59.121Z,29.60
2019-05-30T11:35:26.805Z,29.20
2019-05-30T11:37:57.306Z,29.10
2019-05-30T11:40:24.850Z,29.00
2019-05-30T11:42:53.386Z,29.20
2019-05-30T11:45:20.981Z,29.90
2019-05-30T11:47:49.461Z,30.50
2019-05-30T11:50:16.966Z,30.50
2019-05-30T11:52:44.440Z,31.10
2019-05-30T11:55:12.283Z,32.20
2019-05-30T11:57:39.848Z,32.30
2019-05-30T12:00:07.997Z,32.80
2019-05-30T12:02:35.993Z,34.00
2019-05-30T12:05:04.158Z,35.20
2019-05-30T12:07:36.177Z,35.80
2019-05-30T12:10:01.136Z,35.90
2019-05-30T12:12:29.035Z,36.00
2019-05-30T12:14:57.369Z,35.10
2019-05-30T12:17:24.688Z,34.60
2019-05-30T12:19:53.403Z,34.10
2019-05-30T12:22:20.955Z,33.00
2019-05-30T12:24:48.099Z,32.30
2019-05-30T12:27:17.207Z,32.00
2019-05-30T12:29:44.448Z,31.00
2019-05-30T12:32:11.416Z,30.70
2019-05-30T12:34:38.637Z,30.30
2019-05-30T12:37:06.097Z,30.20
2019-05-30T12:39:33.277Z,29.90
2019-05-30T12:42:01.262Z,29.40
2019-05-30T12:44:28.720Z,28.80
2019-05-30T12:46:55.628Z,28.10
2019-05-30T12:49:23.313Z,27.50
2019-05-30T12:51:50.518Z,27.20
2019-05-30T12:54:17.848Z,27.10
2019-05-30T12:56:46.560Z,27.30
2019-05-30T12:59:14.286Z,27.70
2019-05-30T13:01:41.744Z,28.30
2019-05-30T13:04:09.304Z,28.70
2019-05-30T13:06:36.338Z,28.60
2019-05-30T13:09:07.367Z,28.50
2019-05-30T13:11:34.852Z,28.70
2019-05-30T13:14:02.963Z,28.90
2019-05-30T13:16:30.593Z,28.90
2019-05-30T13:19:02.248Z,28.80
2019-05-30T13:21:29.831Z,28.70
2019-05-30T13:23:57.491Z,28.40
2019-05-30T13:26:25.946Z,28.50
2019-05-30T13:28:53.402Z,28.70
2019-05-30T13:31:21.512Z,28.60
2019-05-30T13:33:48.427Z,28.40
2019-05-30T13:36:15.699Z,28.30
2019-05-30T13:38:43.639Z,28.20
2019-05-30T13:41:10.909Z,27.80
2019-05-30T13:43:38.859Z,27.50
2019-05-30T13:46:06.460Z,27.30
2019-05-30T13:48:33.401Z,27.30
2019-05-30T13:51:00.852Z,27.50
2019-05-30T13:53:28.368Z,27.80
2019-05-30T13:55:56.077Z,27.90
2019-05-30T13:58:23.273Z,27.70
2019-05-30T14:00:51.840Z,27.50
2019-05-30T14:03:18.932Z,27.60
2019-05-30T14:05:45.884Z,27.30
2019-05-30T14:08:16.591Z,26.80
2019-05-30T14:10:43.001Z,26.50
2019-05-30T14:13:11.301Z,26.40
2019-05-30T14:15:38.919Z,26.30
2019-05-30T14:18:07.235Z,26.40
2019-05-30T14:20:34.791Z,26.50
2019-05-30T14:23:03.273Z,26.70
2019-05-30T14:25:30.500Z,27.00
2019-05-30T14:27:57.641Z,27.30
2019-05-30T14:30:25.130Z,27.70
2019-05-30T14:32:52.767Z,28.30
2019-05-30T14:35:21.475Z,28.80
2019-05-30T14:37:50.147Z,28.80
2019-05-30T14:40:18.018Z,29.10
2019-05-30T14:42:45.494Z,29.10
2019-05-30T14:45:14.737Z,29.00
2019-05-30T14:47:42.177Z,29.20
2019-05-30T14:50:11.316Z,29.10
2019-05-30T14:52:39.410Z,29.00
2019-05-30T14:55:07.313Z,29.00
2019-05-30T14:57:34.535Z,28.60
2019-05-30T15:00:01.836Z,28.70
2019-05-30T15:02:31.367Z,29.10
2019-05-30T15:04:59.067Z,29.10
2019-05-30T15:07:26.604Z,29.30
2019-05-30T15:09:53.820Z,28.90
2019-05-30T15:12:21.297Z,28.60
2019-05-30T15:14:48.753Z,28.40
2019-05-30T15:17:16.475Z,28.20
2019-05-30T15:19:44.215Z,28.10
2019-05-30T15:22:16.380Z,27.80
2019-05-30T15:24:41.322Z,27.50
2019-05-30T15:27:09.979Z,27.50
2019-05-30T15:29:37.075Z,27.60
2019-05-30T15:32:04.239Z,27.50
2019-05-30T15:34:31.448Z,27.40
2019-05-30T15:36:58.870Z,27.00
2019-05-30T15:39:32.861Z,26.80
2019-05-30T15:41:55.602Z,26.80
2019-05-30T15:44:22.712Z,27.00
2019-05-30T15:46:49.886Z,27.20
2019-05-30T15:49:17.103Z,27.60
2019-05-30T15:51:44.766Z,27.60
2019-05-30T15:54:12.983Z,27.60
2019-05-30T15:56:40.134Z,27.40
2019-05-30T15:59:07.948Z,27.20
2019-05-30T16:01:35.460Z,27.10
2019-05-30T16:04:02.678Z,26.90
2019-05-30T16:06:29.827Z,27.10
2019-05-30T16:08:56.707Z,27.20
2019-05-30T16:11:24.002Z,27.10
2019-05-30T16:13:51.339Z,26.90
2019-05-30T16:16:33.795Z,26.70
2019-05-30T16:18:48.463Z,26.40
2019-05-30T16:21:17.051Z,26.10
2019-05-30T16:23:44.984Z,26.00
2019-05-30T16:26:13.505Z,26.10
2019-05-30T16:28:41.627Z,26.60
2019-05-30T16:31:08.584Z,27.10
2019-05-30T16:33:36.008Z,27.70
2019-05-30T16:36:03.520Z,27.80
2019-05-30T16:38:31.085Z,27.90
2019-05-30T16:40:58.754Z,27.90
2019-05-30T16:43:29.159Z,27.70
2019-05-30T16:45:56.700Z,27.70
2019-05-30T16:48:23.986Z,27.50
2019-05-30T16:50:51.786Z,27.20
2019-05-30T16:53:22.679Z,26.60
2019-05-30T16:55:48.630Z,25.80
2019-05-30T16:58:17.685Z,25.30
2019-05-30T17:00:45.138Z,24.80
2019-05-30T17:03:13.018Z,24.60
2019-05-30T17:05:40.421Z,24.50
2019-05-30T17:08:07.405Z,24.40
2019-05-30T17:10:34.615Z,24.20
2019-05-30T17:13:01.905Z,24.00
2019-05-30T17:15:29.039Z,23.90
2019-05-30T17:17:56.347Z,23.80
2019-05-30T17:20:24.533Z,23.70
2019-05-30T17:22:52.133Z,23.60
2019-05-30T17:25:19.335Z,23.30
2019-05-30T17:27:46.372Z,23.10
2019-05-30T17:30:14.696Z,23.00
2019-05-30T17:32:41.996Z,22.90
2019-05-30T17:35:11.132Z,22.90
2019-05-30T17:37:38.277Z,22.80
2019-05-30T17:40:06.025Z,22.80
2019-05-30T17:42:32.876Z,22.80
2019-05-30T17:45:01.919Z,22.80
2019-05-30T17:47:29.524Z,22.70
2019-05-30T17:49:56.767Z,22.50
2019-05-30T17:52:23.926Z,22.50
2019-05-30T17:54:50.840Z,22.40
2019-05-30T17:57:18.284Z,22.40
2019-05-30T17:59:45.547Z,22.30
2019-05-30T18:02:13.070Z,22.20
2019-05-30T18:04:40.480Z,21.90
2019-05-30T18:07:07.627Z,21.80
2019-05-30T18:09:34.893Z,21.60
2019-05-30T18:12:02.141Z,21.50
2019-05-30T18:14:31.314Z,21.40
2019-05-30T18:16:58.584Z,21.30
2019-05-30T18:19:25.760Z,21.30
2019-05-30T18:21:54.037Z,21.10
2019-05-30T18:24:21.410Z,21.10
2019-05-30T18:26:49.031Z,20.90
2019-05-30T18:29:18.954Z,20.80
2019-05-30T18:31:45.657Z,20.70
2019-05-30T18:34:12.987Z,20.60
2019-05-30T18:36:40.546Z,20.50
2019-05-30T18:39:12.287Z,20.40
2019-05-30T18:41:39.768Z,20.30
2019-05-30T18:44:07.007Z,20.10
2019-05-30T18:46:38.435Z,20.00
2019-05-30T18:49:04.578Z,19.90
2019-05-30T18:51:32.534Z,19.80
2019-05-30T18:54:00.366Z,19.70
2019-05-30T18:56:29.246Z,19.60
2019-05-30T18:58:57.467Z,19.50
2019-05-30T19:01:25.399Z,19.40
2019-05-30T19:03:52.903Z,19.30
2019-05-30T19:06:20.431Z,19.20
2019-05-30T19:08:47.843Z,19.20
2019-05-30T19:11:27.392Z,19.10
2019-05-30T19:13:46.022Z,19.00
2019-05-30T19:16:13.128Z,18.90
2019-05-30T19:18:40.547Z,18.80
2019-05-30T19:21:08.122Z,18.70
2019-05-30T19:23:39.328Z,18.60
2019-05-30T19:26:05.033Z,18.50
2019-05-30T19:28:32.519Z,18.40
2019-05-30T19:30:59.963Z,18.30
2019-05-30T19:33:27.236Z,18.30
2019-05-30T19:35:54.978Z,18.20
2019-05-30T19:38:21.988Z,18.20
2019-05-30T19:40:49.376Z,18.20
2019-05-30T19:43:16.997Z,18.10
2019-05-30T19:45:46.094Z,18.10
2019-05-30T19:48:13.577Z,18.00
2019-05-30T19:50:41.235Z,17.90
2019-05-30T19:53:09.267Z,17.80
2019-05-30T19:55:37.567Z,17.70
2019-05-30T19:58:05.137Z,17.60
2019-05-30T20:00:32.442Z,17.50
2019-05-30T20:02:59.670Z,17.40
2019-05-30T20:05:26.898Z,17.40
2019-05-30T20:07:54.226Z,17.40
2019-05-30T20:10:21.792Z,17.40
2019-05-30T20:12:49.005Z,17.40
2019-05-30T20:15:16.422Z,17.30
2019-05-30T20:17:43.319Z,17.40
2019-05-30T20:20:11.103Z,17.50
2019-05-30T20:22:38.728Z,17.50
2019-05-30T20:25:08.465Z,17.50
2019-05-30T20:27:36.742Z,17.40
2019-05-30T20:30:05.049Z,17.50
2019-05-30T20:32:32.451Z,17.40
2019-05-30T20:35:01.053Z,17.40
2019-05-30T20:37:28.300Z,17.20
2019-05-30T20:39:55.690Z,17.10
2019-05-30T20:42:26.399Z,17.00
2019-05-30T20:44:53.673Z,17.00
2019-05-30T20:47:20.925Z,17.00
2019-05-30T20:49:47.827Z,16.90
2019-05-30T20:52:14.854Z,16.90
2019-05-30T20:54:43.502Z,16.80
2019-05-30T20:57:11.186Z,16.70
2019-05-30T20:59:38.559Z,16.50
2019-05-30T21:02:06.201Z,16.60
2019-05-30T21:04:33.094Z,16.60
2019-05-30T21:07:00.678Z,16.50
2019-05-30T21:09:29.407Z,16.50
2019-05-30T21:11:59.682Z,16.50
2019-05-30T21:14:28.784Z,16.50
2019-05-30T21:16:56.358Z,16.40
2019-05-30T21:19:23.774Z,16.40
2019-05-30T21:21:54.417Z,16.40
2019-05-30T21:24:21.933Z,16.50
2019-05-30T21:26:49.125Z,16.50
2019-05-30T21:29:15.977Z,16.50
2019-05-30T21:31:43.594Z,16.50
2019-05-30T21:34:11.090Z,16.50
2019-05-30T21:36:38.181Z,16.50
2019-05-30T21:39:06.428Z,16.50
2019-05-30T21:41:34.022Z,16.50
2019-05-30T21:44:03.773Z,16.30
2019-05-30T21:46:30.618Z,16.30
2019-05-30T21:48:57.674Z,16.30
2019-05-30T21:51:27.384Z,16.40
2019-05-30T21:53:54.603Z,16.40
2019-05-30T21:56:21.870Z,16.40
2019-05-30T21:58:50.356Z,16.30
2019-05-30T22:01:30.466Z,16.30
2019-05-30T22:03:57.550Z,16.30
2019-05-30T22:06:24.611Z,16.20
2019-05-30T22:08:52.278Z,16.20
2019-05-30T22:11:20.245Z,16.20
2019-05-30T22:13:47.729Z,16.10
2019-05-30T22:16:15.458Z,16.00
2019-05-30T22:18:44.113Z,15.90
2019-05-30T22:21:12.018Z,15.70
2019-05-30T22:23:39.092Z,15.70
2019-05-30T22:26:06.529Z,15.60
2019-05-30T22:28:33.786Z,15.60
2019-05-30T22:31:01.623Z,15.60
2019-05-30T22:33:28.839Z,15.60
2019-05-30T22:35:55.673Z,15.60
2019-05-30T22:38:23.351Z,15.60
2019-05-30T22:40:51.984Z,15.60
2019-05-30T22:43:25.401Z,15.50
2019-05-30T22:45:50.419Z,15.50
2019-05-30T22:48:17.881Z,15.50
2019-05-30T22:50:49.115Z,15.50
2019-05-30T22:53:16.549Z,15.40
2019-05-30T22:55:44.966Z,15.40
2019-05-30T22:58:12.940Z,15.50
2019-05-30T23:00:41.586Z,15.50
2019-05-30T23:03:09.103Z,15.50
2019-05-30T23:05:36.390Z,15.50
2019-05-30T23:08:03.598Z,15.50
2019-05-30T23:10:30.643Z,15.50
2019-05-30T23:12:58.138Z,15.50
2019-05-30T23:15:25.519Z,15.60
2019-05-30T23:17:52.918Z,15.60
2019-05-30T23:20:21.003Z,15.60
2019-05-30T23:22:48.841Z,15.60
2019-05-30T23:25:15.955Z,15.70
2019-05-30T23:27:42.840Z,15.70
2019-05-30T23:30:10.130Z,15.70
2019-05-30T23:32:37.371Z,15.70
2019-05-30T23:35:05.428Z,15.60
2019-05-30T23:37:32.855Z,15.60
2019-05-30T23:39:59.805Z,15.60
2019-05-30T23:42:27.541Z,15.70
2019-05-30T23:44:55.421Z,15.70
2019-05-30T23:47:22.685Z,15.80
2019-05-30T23:49:49.912Z,16.00
2019-05-30T23:52:16.962Z,16.10
2019-05-30T23:54:44.485Z,16.10
2019-05-30T23:57:11.354Z,16.20
2019-05-30T23:59:38.581Z,16.20
